sensor_id;sensor_type;location;lat;lon;timestamp;temperature;humidity
9768;DHT22;4923;52.520;13.494;2023-09-30T00:01:49;16.40;99.90
9768;DHT22;4923;52.520;13.494;2023-09-30T00:04:39;16.40;99.90
9768;DHT22;4923;52.520;13.494;2023-09-30T00:07:26;16.40;99.90
9768;DHT22;4923;52.520;13.494;2023-09-30T00:10:13;16.50;99.90
9768;DHT22;4923;52.520;13.494;2023-09-30T00:13:00;16.50;99.90
9768;DHT22;4923;52.520;13.494;2023-09-30T00:15:47;16.50;99.90
9768;DHT22;4923;52.520;13.494;2023-09-30T00:18:34;16.50;99.90
9768;DHT22;4923;52.520;13.494;2023-09-30T00:21:22;16.50;99.90
9768;DHT22;4923;52.520;13.494;2023-09-30T00:24:09;16.50;99.90
9768;DHT22;4923;52.520;13.494;2023-09-30T00:26:55;16.50;99.90
9768;DHT22;4923;52.520;13.494;2023-09-30T00:29:42;16.40;99.90
9768;DHT22;4923;52.520;13.494;2023-09-30T00:32:29;16.40;99.90
9768;DHT22;4923;52.520;13.494;2023-09-30T00:35:16;16.30;99.90
9768;DHT22;4923;52.520;13.494;2023-09-30T00:38:04;16.20;99.90
9768;DHT22;4923;52.520;13.494;2023-09-30T00:40:51;16.20;99.90
9768;DHT22;4923;52.520;13.494;2023-09-30T00:43:39;16.10;99.90
9768;DHT22;4923;52.520;13.494;2023-09-30T00:46:29;16.10;99.90
9768;DHT22;4923;52.520;13.494;2023-09-30T00:49:16;16.00;99.90
9768;DHT22;4923;52.520;13.494;2023-09-30T00:52:04;15.90;99.90
9768;DHT22;4923;52.520;13.494;2023-09-30T00:54:53;15.80;99.90
9768;DHT22;4923;52.520;13.494;2023-09-30T00:57:41;15.70;99.90
9768;DHT22;4923;52.520;13.494;2023-09-30T01:00:27;15.50;99.90
9768;DHT22;4923;52.520;13.494;2023-09-30T01:03:14;15.40;99.90
9768;DHT22;4923;52.520;13.494;2023-09-30T01:06:01;15.40;99.90
9768;DHT22;4923;52.520;13.494;2023-09-30T01:08:48;15.30;99.90
9768;DHT22;4923;52.520;13.494;2023-09-30T01:11:36;15.20;99.90
9768;DHT22;4923;52.520;13.494;2023-09-30T01:14:24;15.10;99.90
9768;DHT22;4923;52.520;13.494;2023-09-30T01:17:11;15.10;99.90
9768;DHT22;4923;52.520;13.494;2023-09-30T01:19:59;15.10;99.90
9768;DHT22;4923;52.520;13.494;2023-09-30T01:22:48;15.10;99.90
9768;DHT22;4923;52.520;13.494;2023-09-30T01:25:34;15.00;99.90
9768;DHT22;4923;52.520;13.494;2023-09-30T01:28:23;14.90;99.90
9768;DHT22;4923;52.520;13.494;2023-09-30T01:31:10;14.90;99.90
9768;DHT22;4923;52.520;13.494;2023-09-30T01:33:58;14.80;99.90
9768;DHT22;4923;52.520;13.494;2023-09-30T01:36:45;14.70;99.90
9768;DHT22;4923;52.520;13.494;2023-09-30T01:39:33;14.70;99.90
9768;DHT22;4923;52.520;13.494;2023-09-30T01:42:20;14.70;99.90
9768;DHT22;4923;52.520;13.494;2023-09-30T01:45:08;14.60;99.90
9768;DHT22;4923;52.520;13.494;2023-09-30T01:47:56;14.70;99.90
9768;DHT22;4923;52.520;13.494;2023-09-30T01:50:42;14.60;99.90
9768;DHT22;4923;52.520;13.494;2023-09-30T01:53:29;14.60;99.90
9768;DHT22;4923;52.520;13.494;2023-09-30T01:56:17;14.50;99.90
9768;DHT22;4923;52.520;13.494;2023-09-30T01:59:04;14.50;99.90
9768;DHT22;4923;52.520;13.494;2023-09-30T02:01:51;14.50;99.90
9768;DHT22;4923;52.520;13.494;2023-09-30T02:04:38;14.40;99.90
9768;DHT22;4923;52.520;13.494;2023-09-30T02:07:25;14.40;99.90
9768;DHT22;4923;52.520;13.494;2023-09-30T02:10:12;14.30;99.90
9768;DHT22;4923;52.520;13.494;2023-09-30T02:13:00;14.30;99.90
9768;DHT22;4923;52.520;13.494;2023-09-30T02:15:47;14.30;99.90
9768;DHT22;4923;52.520;13.494;2023-09-30T02:18:34;14.20;99.90
9768;DHT22;4923;52.520;13.494;2023-09-30T02:21:21;14.20;99.90
9768;DHT22;4923;52.520;13.494;2023-09-30T02:24:08;14.10;99.90
9768;DHT22;4923;52.520;13.494;2023-09-30T02:26:55;14.10;99.90
9768;DHT22;4923;52.520;13.494;2023-09-30T02:29:44;14.00;99.90
9768;DHT22;4923;52.520;13.494;2023-09-30T02:32:31;14.00;99.90
9768;DHT22;4923;52.520;13.494;2023-09-30T02:35:18;13.90;99.90
9768;DHT22;4923;52.520;13.494;2023-09-30T02:38:06;13.90;99.90
9768;DHT22;4923;52.520;13.494;2023-09-30T02:40:54;13.90;99.90
9768;DHT22;4923;52.520;13.494;2023-09-30T02:43:41;13.80;99.90
9768;DHT22;4923;52.520;13.494;2023-09-30T02:46:29;13.70;99.90
9768;DHT22;4923;52.520;13.494;2023-09-30T02:49:17;13.80;99.90
9768;DHT22;4923;52.520;13.494;2023-09-30T02:52:04;13.70;99.90
9768;DHT22;4923;52.520;13.494;2023-09-30T02:54:51;13.70;99.90
9768;DHT22;4923;52.520;13.494;2023-09-30T02:57:39;13.70;99.90
9768;DHT22;4923;52.520;13.494;2023-09-30T03:00:26;13.60;99.90
9768;DHT22;4923;52.520;13.494;2023-09-30T03:03:19;13.60;99.90
9768;DHT22;4923;52.520;13.494;2023-09-30T03:06:05;13.60;99.90
9768;DHT22;4923;52.520;13.494;2023-09-30T03:08:52;13.60;99.90
9768;DHT22;4923;52.520;13.494;2023-09-30T03:11:39;13.60;99.90
9768;DHT22;4923;52.520;13.494;2023-09-30T03:14:28;13.60;99.90
9768;DHT22;4923;52.520;13.494;2023-09-30T03:17:16;13.50;99.90
9768;DHT22;4923;52.520;13.494;2023-09-30T03:20:07;13.50;99.90
9768;DHT22;4923;52.520;13.494;2023-09-30T03:22:56;13.50;99.90
9768;DHT22;4923;52.520;13.494;2023-09-30T03:25:43;13.50;99.90
9768;DHT22;4923;52.520;13.494;2023-09-30T03:28:30;13.50;99.90
9768;DHT22;4923;52.520;13.494;2023-09-30T03:31:19;13.50;99.90
9768;DHT22;4923;52.520;13.494;2023-09-30T03:34:06;13.50;99.90
9768;DHT22;4923;52.520;13.494;2023-09-30T03:36:55;13.50;99.90
9768;DHT22;4923;52.520;13.494;2023-09-30T03:39:44;13.40;99.90
9768;DHT22;4923;52.520;13.494;2023-09-30T03:42:34;13.50;99.90
9768;DHT22;4923;52.520;13.494;2023-09-30T03:45:22;13.50;99.90
9768;DHT22;4923;52.520;13.494;2023-09-30T03:48:09;13.40;99.90
9768;DHT22;4923;52.520;13.494;2023-09-30T03:50:57;13.40;99.90
9768;DHT22;4923;52.520;13.494;2023-09-30T03:53:45;13.40;99.90
9768;DHT22;4923;52.520;13.494;2023-09-30T03:56:32;13.30;99.90
9768;DHT22;4923;52.520;13.494;2023-09-30T03:59:18;13.40;99.90
9768;DHT22;4923;52.520;13.494;2023-09-30T04:02:05;13.30;99.90
9768;DHT22;4923;52.520;13.494;2023-09-30T04:04:53;13.30;99.90
9768;DHT22;4923;52.520;13.494;2023-09-30T04:07:41;13.40;99.90
9768;DHT22;4923;52.520;13.494;2023-09-30T04:10:30;13.30;99.90
9768;DHT22;4923;52.520;13.494;2023-09-30T04:13:16;13.30;99.90
9768;DHT22;4923;52.520;13.494;2023-09-30T04:16:06;13.30;99.90
9768;DHT22;4923;52.520;13.494;2023-09-30T04:18:53;13.30;99.90
9768;DHT22;4923;52.520;13.494;2023-09-30T04:21:40;13.30;99.90
9768;DHT22;4923;52.520;13.494;2023-09-30T04:24:28;13.30;99.90
9768;DHT22;4923;52.520;13.494;2023-09-30T04:27:17;13.20;99.90
9768;DHT22;4923;52.520;13.494;2023-09-30T04:30:05;13.20;99.90
9768;DHT22;4923;52.520;13.494;2023-09-30T04:32:54;13.10;99.90
9768;DHT22;4923;52.520;13.494;2023-09-30T04:35:42;13.10;99.90
9768;DHT22;4923;52.520;13.494;2023-09-30T04:38:29;13.10;99.90
9768;DHT22;4923;52.520;13.494;2023-09-30T04:41:16;13.00;99.90
9768;DHT22;4923;52.520;13.494;2023-09-30T04:44:06;13.10;99.90
9768;DHT22;4923;52.520;13.494;2023-09-30T04:46:55;13.00;99.90
9768;DHT22;4923;52.520;13.494;2023-09-30T04:49:42;13.00;99.90
9768;DHT22;4923;52.520;13.494;2023-09-30T04:52:30;12.90;99.90
9768;DHT22;4923;52.520;13.494;2023-09-30T04:55:17;12.90;99.90
9768;DHT22;4923;52.520;13.494;2023-09-30T04:58:04;12.90;99.90
9768;DHT22;4923;52.520;13.494;2023-09-30T05:00:53;12.90;99.90
9768;DHT22;4923;52.520;13.494;2023-09-30T05:03:40;12.90;99.90
9768;DHT22;4923;52.520;13.494;2023-09-30T05:06:26;12.80;99.90
9768;DHT22;4923;52.520;13.494;2023-09-30T05:09:13;12.70;99.90
9768;DHT22;4923;52.520;13.494;2023-09-30T05:12:00;12.70;99.90
9768;DHT22;4923;52.520;13.494;2023-09-30T05:14:47;12.70;99.90
9768;DHT22;4923;52.520;13.494;2023-09-30T05:17:35;12.80;99.90
9768;DHT22;4923;52.520;13.494;2023-09-30T05:20:22;12.80;99.90
9768;DHT22;4923;52.520;13.494;2023-09-30T05:23:10;12.80;99.90
9768;DHT22;4923;52.520;13.494;2023-09-30T05:25:58;12.80;99.90
9768;DHT22;4923;52.520;13.494;2023-09-30T05:28:46;12.80;99.90
9768;DHT22;4923;52.520;13.494;2023-09-30T05:31:33;12.80;99.90
9768;DHT22;4923;52.520;13.494;2023-09-30T05:34:21;12.80;99.90
9768;DHT22;4923;52.520;13.494;2023-09-30T05:37:08;12.80;99.90
9768;DHT22;4923;52.520;13.494;2023-09-30T05:39:55;12.90;99.90
9768;DHT22;4923;52.520;13.494;2023-09-30T05:42:42;12.90;99.90
9768;DHT22;4923;52.520;13.494;2023-09-30T05:45:31;13.00;99.90
9768;DHT22;4923;52.520;13.494;2023-09-30T05:48:19;13.00;99.90
9768;DHT22;4923;52.520;13.494;2023-09-30T05:51:08;13.00;99.90
9768;DHT22;4923;52.520;13.494;2023-09-30T05:53:54;13.10;99.90
9768;DHT22;4923;52.520;13.494;2023-09-30T05:56:42;13.20;99.90
9768;DHT22;4923;52.520;13.494;2023-09-30T05:59:29;13.20;99.90
9768;DHT22;4923;52.520;13.494;2023-09-30T06:02:16;13.40;99.90
9768;DHT22;4923;52.520;13.494;2023-09-30T06:05:03;13.50;99.90
9768;DHT22;4923;52.520;13.494;2023-09-30T06:07:51;13.60;99.90
9768;DHT22;4923;52.520;13.494;2023-09-30T06:10:40;13.80;99.90
9768;DHT22;4923;52.520;13.494;2023-09-30T06:13:28;13.90;99.90
9768;DHT22;4923;52.520;13.494;2023-09-30T06:16:17;14.00;99.90
9768;DHT22;4923;52.520;13.494;2023-09-30T06:19:04;14.00;99.90
9768;DHT22;4923;52.520;13.494;2023-09-30T06:21:51;14.20;99.90
9768;DHT22;4923;52.520;13.494;2023-09-30T06:24:40;14.30;99.90
9768;DHT22;4923;52.520;13.494;2023-09-30T06:27:27;14.30;99.90
9768;DHT22;4923;52.520;13.494;2023-09-30T06:30:15;14.30;99.90
9768;DHT22;4923;52.520;13.494;2023-09-30T06:33:02;14.30;99.90
9768;DHT22;4923;52.520;13.494;2023-09-30T06:35:50;14.30;99.90
9768;DHT22;4923;52.520;13.494;2023-09-30T06:38:37;14.40;99.90
9768;DHT22;4923;52.520;13.494;2023-09-30T06:41:25;14.40;99.90
9768;DHT22;4923;52.520;13.494;2023-09-30T06:44:12;14.30;99.90
9768;DHT22;4923;52.520;13.494;2023-09-30T06:46:59;14.30;99.90
9768;DHT22;4923;52.520;13.494;2023-09-30T06:49:46;14.40;99.90
9768;DHT22;4923;52.520;13.494;2023-09-30T06:52:33;14.40;99.90
9768;DHT22;4923;52.520;13.494;2023-09-30T06:55:20;14.40;99.90
9768;DHT22;4923;52.520;13.494;2023-09-30T06:58:09;14.60;99.90
9768;DHT22;4923;52.520;13.494;2023-09-30T07:00:56;14.60;99.90
9768;DHT22;4923;52.520;13.494;2023-09-30T07:03:43;14.70;99.90
9768;DHT22;4923;52.520;13.494;2023-09-30T07:06:31;14.80;99.90
9768;DHT22;4923;52.520;13.494;2023-09-30T07:09:17;14.90;99.90
9768;DHT22;4923;52.520;13.494;2023-09-30T07:12:05;15.00;99.90
9768;DHT22;4923;52.520;13.494;2023-09-30T07:14:54;15.10;99.90
9768;DHT22;4923;52.520;13.494;2023-09-30T07:17:41;15.10;99.90
9768;DHT22;4923;52.520;13.494;2023-09-30T07:20:29;15.10;99.90
9768;DHT22;4923;52.520;13.494;2023-09-30T07:23:19;15.20;99.90
9768;DHT22;4923;52.520;13.494;2023-09-30T07:26:06;15.30;99.90
9768;DHT22;4923;52.520;13.494;2023-09-30T07:28:53;15.40;99.90
9768;DHT22;4923;52.520;13.494;2023-09-30T07:31:43;15.30;99.90
9768;DHT22;4923;52.520;13.494;2023-09-30T07:34:30;15.30;99.90
9768;DHT22;4923;52.520;13.494;2023-09-30T07:37:17;15.30;99.90
9768;DHT22;4923;52.520;13.494;2023-09-30T07:40:07;15.50;99.90
9768;DHT22;4923;52.520;13.494;2023-09-30T07:42:54;15.50;99.90
9768;DHT22;4923;52.520;13.494;2023-09-30T07:45:41;15.40;99.90
9768;DHT22;4923;52.520;13.494;2023-09-30T07:48:30;15.60;99.90
9768;DHT22;4923;52.520;13.494;2023-09-30T07:51:18;15.60;99.90
9768;DHT22;4923;52.520;13.494;2023-09-30T07:54:05;15.50;99.90
9768;DHT22;4923;52.520;13.494;2023-09-30T07:56:52;15.60;99.90
9768;DHT22;4923;52.520;13.494;2023-09-30T07:59:39;15.60;99.90
9768;DHT22;4923;52.520;13.494;2023-09-30T08:02:28;15.50;99.90
9768;DHT22;4923;52.520;13.494;2023-09-30T08:05:20;15.50;99.90
9768;DHT22;4923;52.520;13.494;2023-09-30T08:08:07;15.60;99.90
9768;DHT22;4923;52.520;13.494;2023-09-30T08:10:54;15.70;99.90
9768;DHT22;4923;52.520;13.494;2023-09-30T08:13:41;15.80;99.90
9768;DHT22;4923;52.520;13.494;2023-09-30T08:16:28;15.90;99.90
9768;DHT22;4923;52.520;13.494;2023-09-30T08:19:15;15.90;99.90
9768;DHT22;4923;52.520;13.494;2023-09-30T08:22:03;16.00;99.90
9768;DHT22;4923;52.520;13.494;2023-09-30T08:24:52;16.10;99.90
9768;DHT22;4923;52.520;13.494;2023-09-30T08:27:39;16.20;99.90
9768;DHT22;4923;52.520;13.494;2023-09-30T08:30:26;16.40;99.90
9768;DHT22;4923;52.520;13.494;2023-09-30T08:33:13;16.60;99.90
9768;DHT22;4923;52.520;13.494;2023-09-30T08:36:02;16.80;99.90
9768;DHT22;4923;52.520;13.494;2023-09-30T08:38:54;16.90;99.90
9768;DHT22;4923;52.520;13.494;2023-09-30T08:41:40;16.80;99.90
9768;DHT22;4923;52.520;13.494;2023-09-30T08:44:29;16.70;99.90
9768;DHT22;4923;52.520;13.494;2023-09-30T08:47:16;16.80;99.90
9768;DHT22;4923;52.520;13.494;2023-09-30T08:50:06;16.90;99.90
9768;DHT22;4923;52.520;13.494;2023-09-30T08:52:55;17.00;99.90
9768;DHT22;4923;52.520;13.494;2023-09-30T08:55:44;16.90;99.90
9768;DHT22;4923;52.520;13.494;2023-09-30T08:58:32;17.10;99.90
9768;DHT22;4923;52.520;13.494;2023-09-30T09:01:20;17.30;99.90
9768;DHT22;4923;52.520;13.494;2023-09-30T09:04:07;17.10;99.90
9768;DHT22;4923;52.520;13.494;2023-09-30T09:06:54;17.00;99.90
9768;DHT22;4923;52.520;13.494;2023-09-30T09:09:41;16.90;99.90
9768;DHT22;4923;52.520;13.494;2023-09-30T09:12:40;16.80;99.90
9768;DHT22;4923;52.520;13.494;2023-09-30T09:15:28;16.80;99.90
9768;DHT22;4923;52.520;13.494;2023-09-30T09:18:31;16.90;99.90
9768;DHT22;4923;52.520;13.494;2023-09-30T09:21:20;17.20;99.90
9768;DHT22;4923;52.520;13.494;2023-09-30T09:24:08;17.40;99.90
9768;DHT22;4923;52.520;13.494;2023-09-30T09:27:04;17.40;99.90
9768;DHT22;4923;52.520;13.494;2023-09-30T09:29:53;17.50;99.90
9768;DHT22;4923;52.520;13.494;2023-09-30T09:32:52;17.60;99.90
9768;DHT22;4923;52.520;13.494;2023-09-30T09:35:40;17.50;99.90
9768;DHT22;4923;52.520;13.494;2023-09-30T09:38:43;17.60;99.90
9768;DHT22;4923;52.520;13.494;2023-09-30T09:41:30;17.80;99.90
9768;DHT22;4923;52.520;13.494;2023-09-30T09:44:19;17.80;99.90
9768;DHT22;4923;52.520;13.494;2023-09-30T09:47:09;18.10;99.90
9768;DHT22;4923;52.520;13.494;2023-09-30T09:49:57;18.10;99.90
9768;DHT22;4923;52.520;13.494;2023-09-30T09:52:44;18.20;99.90
9768;DHT22;4923;52.520;13.494;2023-09-30T09:55:36;18.50;99.90
9768;DHT22;4923;52.520;13.494;2023-09-30T09:58:24;18.80;99.90
9768;DHT22;4923;52.520;13.494;2023-09-30T10:01:12;18.60;99.90
9768;DHT22;4923;52.520;13.494;2023-09-30T10:04:00;18.30;99.90
9768;DHT22;4923;52.520;13.494;2023-09-30T10:06:52;18.50;99.90
9768;DHT22;4923;52.520;13.494;2023-09-30T10:09:45;18.50;99.90
9768;DHT22;4923;52.520;13.494;2023-09-30T10:12:36;18.40;99.90
9768;DHT22;4923;52.520;13.494;2023-09-30T10:15:35;18.30;99.90
9768;DHT22;4923;52.520;13.494;2023-09-30T10:18:22;18.40;99.90
9768;DHT22;4923;52.520;13.494;2023-09-30T10:21:10;18.60;99.90
9768;DHT22;4923;52.520;13.494;2023-09-30T10:24:28;18.70;99.90
9768;DHT22;4923;52.520;13.494;2023-09-30T10:27:28;18.50;99.90
9768;DHT22;4923;52.520;13.494;2023-09-30T10:30:18;18.40;99.90
9768;DHT22;4923;52.520;13.494;2023-09-30T10:33:12;18.60;99.90
9768;DHT22;4923;52.520;13.494;2023-09-30T10:35:58;18.80;99.90
9768;DHT22;4923;52.520;13.494;2023-09-30T10:38:47;18.80;99.90
9768;DHT22;4923;52.520;13.494;2023-09-30T10:41:50;19.00;99.90
9768;DHT22;4923;52.520;13.494;2023-09-30T10:44:38;19.20;99.90
9768;DHT22;4923;52.520;13.494;2023-09-30T10:47:37;19.20;99.90
9768;DHT22;4923;52.520;13.494;2023-09-30T10:50:49;19.10;99.90
9768;DHT22;4923;52.520;13.494;2023-09-30T10:53:41;18.90;99.90
9768;DHT22;4923;52.520;13.494;2023-09-30T10:56:33;18.90;99.90
9768;DHT22;4923;52.520;13.494;2023-09-30T10:59:21;18.90;99.90
9768;DHT22;4923;52.520;13.494;2023-09-30T11:02:18;18.80;99.90
9768;DHT22;4923;52.520;13.494;2023-09-30T11:05:09;18.70;99.90
9768;DHT22;4923;52.520;13.494;2023-09-30T11:07:57;18.80;99.90
9768;DHT22;4923;52.520;13.494;2023-09-30T11:10:49;19.00;99.90
9768;DHT22;4923;52.520;13.494;2023-09-30T11:13:37;18.90;99.90
9768;DHT22;4923;52.520;13.494;2023-09-30T11:16:24;18.90;99.90
9768;DHT22;4923;52.520;13.494;2023-09-30T11:19:11;18.90;99.90
9768;DHT22;4923;52.520;13.494;2023-09-30T11:21:58;19.00;99.90
9768;DHT22;4923;52.520;13.494;2023-09-30T11:24:45;18.90;99.90
9768;DHT22;4923;52.520;13.494;2023-09-30T11:27:32;18.90;99.90
9768;DHT22;4923;52.520;13.494;2023-09-30T11:30:20;19.10;99.90
9768;DHT22;4923;52.520;13.494;2023-09-30T11:33:08;19.20;99.90
9768;DHT22;4923;52.520;13.494;2023-09-30T11:35:59;19.50;99.90
9768;DHT22;4923;52.520;13.494;2023-09-30T11:38:47;19.80;99.90
9768;DHT22;4923;52.520;13.494;2023-09-30T11:41:35;19.80;99.90
9768;DHT22;4923;52.520;13.494;2023-09-30T11:44:24;19.60;99.90
9768;DHT22;4923;52.520;13.494;2023-09-30T11:47:13;19.60;99.90
9768;DHT22;4923;52.520;13.494;2023-09-30T11:50:00;19.60;99.90
9768;DHT22;4923;52.520;13.494;2023-09-30T11:52:47;19.50;99.90
9768;DHT22;4923;52.520;13.494;2023-09-30T11:55:34;19.20;99.90
9768;DHT22;4923;52.520;13.494;2023-09-30T11:58:23;19.10;99.90
9768;DHT22;4923;52.520;13.494;2023-09-30T12:01:09;19.10;99.90
9768;DHT22;4923;52.520;13.494;2023-09-30T12:04:00;18.80;99.90
9768;DHT22;4923;52.520;13.494;2023-09-30T12:06:48;18.70;99.90
9768;DHT22;4923;52.520;13.494;2023-09-30T12:09:35;18.60;99.90
9768;DHT22;4923;52.520;13.494;2023-09-30T12:12:22;18.60;99.90
9768;DHT22;4923;52.520;13.494;2023-09-30T12:15:10;18.60;99.90
9768;DHT22;4923;52.520;13.494;2023-09-30T12:17:57;18.50;99.90
9768;DHT22;4923;52.520;13.494;2023-09-30T12:20:45;18.50;99.90
9768;DHT22;4923;52.520;13.494;2023-09-30T12:23:32;18.50;99.90
9768;DHT22;4923;52.520;13.494;2023-09-30T12:26:19;18.50;99.90
9768;DHT22;4923;52.520;13.494;2023-09-30T12:29:06;18.50;99.90
9768;DHT22;4923;52.520;13.494;2023-09-30T12:31:54;18.50;99.90
9768;DHT22;4923;52.520;13.494;2023-09-30T12:34:41;18.50;99.90
9768;DHT22;4923;52.520;13.494;2023-09-30T12:37:30;18.60;99.90
9768;DHT22;4923;52.520;13.494;2023-09-30T12:40:18;18.70;99.90
9768;DHT22;4923;52.520;13.494;2023-09-30T12:43:05;18.70;99.90
9768;DHT22;4923;52.520;13.494;2023-09-30T12:45:52;18.90;99.90
9768;DHT22;4923;52.520;13.494;2023-09-30T12:48:39;18.90;99.90
9768;DHT22;4923;52.520;13.494;2023-09-30T12:51:26;18.80;99.90
9768;DHT22;4923;52.520;13.494;2023-09-30T12:54:14;18.80;99.90
9768;DHT22;4923;52.520;13.494;2023-09-30T12:57:03;18.80;99.90
9768;DHT22;4923;52.520;13.494;2023-09-30T12:59:53;18.90;99.90
9768;DHT22;4923;52.520;13.494;2023-09-30T13:02:39;19.00;99.90
9768;DHT22;4923;52.520;13.494;2023-09-30T13:05:27;19.00;99.90
9768;DHT22;4923;52.520;13.494;2023-09-30T13:08:15;19.00;99.90
9768;DHT22;4923;52.520;13.494;2023-09-30T13:11:03;19.10;99.90
9768;DHT22;4923;52.520;13.494;2023-09-30T13:13:50;19.10;99.90
9768;DHT22;4923;52.520;13.494;2023-09-30T13:16:36;19.00;99.90
9768;DHT22;4923;52.520;13.494;2023-09-30T13:19:23;19.10;99.90
9768;DHT22;4923;52.520;13.494;2023-09-30T13:22:10;19.10;99.90
9768;DHT22;4923;52.520;13.494;2023-09-30T13:25:00;19.10;99.90
9768;DHT22;4923;52.520;13.494;2023-09-30T13:27:48;19.30;99.90
9768;DHT22;4923;52.520;13.494;2023-09-30T13:30:35;19.30;99.90
9768;DHT22;4923;52.520;13.494;2023-09-30T13:33:22;19.30;99.90
9768;DHT22;4923;52.520;13.494;2023-09-30T13:36:09;19.30;99.90
9768;DHT22;4923;52.520;13.494;2023-09-30T13:38:56;19.30;99.90
9768;DHT22;4923;52.520;13.494;2023-09-30T13:41:43;19.40;99.90
9768;DHT22;4923;52.520;13.494;2023-09-30T13:44:34;19.20;99.90
9768;DHT22;4923;52.520;13.494;2023-09-30T13:47:22;19.30;99.90
9768;DHT22;4923;52.520;13.494;2023-09-30T13:50:09;19.30;99.90
9768;DHT22;4923;52.520;13.494;2023-09-30T13:52:56;19.40;99.90
9768;DHT22;4923;52.520;13.494;2023-09-30T13:55:42;19.30;99.90
9768;DHT22;4923;52.520;13.494;2023-09-30T13:58:31;19.30;99.90
9768;DHT22;4923;52.520;13.494;2023-09-30T14:01:19;19.40;99.90
9768;DHT22;4923;52.520;13.494;2023-09-30T14:04:06;19.30;99.90
9768;DHT22;4923;52.520;13.494;2023-09-30T14:06:53;19.20;99.90
9768;DHT22;4923;52.520;13.494;2023-09-30T14:09:40;19.10;99.90
9768;DHT22;4923;52.520;13.494;2023-09-30T14:12:26;19.20;99.90
9768;DHT22;4923;52.520;13.494;2023-09-30T14:15:13;19.20;99.90
9768;DHT22;4923;52.520;13.494;2023-09-30T14:18:02;19.10;99.90
9768;DHT22;4923;52.520;13.494;2023-09-30T14:20:49;19.00;99.90
9768;DHT22;4923;52.520;13.494;2023-09-30T14:23:36;19.00;99.90
9768;DHT22;4923;52.520;13.494;2023-09-30T14:26:23;19.00;99.90
9768;DHT22;4923;52.520;13.494;2023-09-30T14:29:10;19.00;99.90
9768;DHT22;4923;52.520;13.494;2023-09-30T14:31:59;18.90;99.90
9768;DHT22;4923;52.520;13.494;2023-09-30T14:34:47;18.90;99.90
9768;DHT22;4923;52.520;13.494;2023-09-30T14:37:34;18.90;99.90
9768;DHT22;4923;52.520;13.494;2023-09-30T14:40:21;18.90;99.90
9768;DHT22;4923;52.520;13.494;2023-09-30T14:43:07;18.80;99.90
9768;DHT22;4923;52.520;13.494;2023-09-30T14:45:55;18.80;99.90
9768;DHT22;4923;52.520;13.494;2023-09-30T14:48:42;18.70;99.90
9768;DHT22;4923;52.520;13.494;2023-09-30T14:51:30;18.70;99.90
9768;DHT22;4923;52.520;13.494;2023-09-30T14:54:17;18.70;99.90
9768;DHT22;4923;52.520;13.494;2023-09-30T14:57:04;18.70;99.90
9768;DHT22;4923;52.520;13.494;2023-09-30T14:59:51;18.70;99.90
9768;DHT22;4923;52.520;13.494;2023-09-30T15:02:38;18.70;99.90
9768;DHT22;4923;52.520;13.494;2023-09-30T15:05:26;18.60;99.90
9768;DHT22;4923;52.520;13.494;2023-09-30T15:08:14;18.60;99.90
9768;DHT22;4923;52.520;13.494;2023-09-30T15:11:02;18.50;99.90
9768;DHT22;4923;52.520;13.494;2023-09-30T15:13:49;18.50;99.90
9768;DHT22;4923;52.520;13.494;2023-09-30T15:16:36;18.60;99.90
9768;DHT22;4923;52.520;13.494;2023-09-30T15:19:23;18.50;99.90
9768;DHT22;4923;52.520;13.494;2023-09-30T15:22:10;18.50;99.90
9768;DHT22;4923;52.520;13.494;2023-09-30T15:24:58;18.50;99.90
9768;DHT22;4923;52.520;13.494;2023-09-30T15:27:45;18.50;99.90
9768;DHT22;4923;52.520;13.494;2023-09-30T15:30:33;18.50;99.90
9768;DHT22;4923;52.520;13.494;2023-09-30T15:33:20;18.50;99.90
9768;DHT22;4923;52.520;13.494;2023-09-30T15:36:10;18.50;99.90
9768;DHT22;4923;52.520;13.494;2023-09-30T15:38:57;18.40;99.90
9768;DHT22;4923;52.520;13.494;2023-09-30T15:41:45;18.40;99.90
9768;DHT22;4923;52.520;13.494;2023-09-30T15:44:32;18.40;99.90
9768;DHT22;4923;52.520;13.494;2023-09-30T15:47:19;18.30;99.90
9768;DHT22;4923;52.520;13.494;2023-09-30T15:50:07;18.20;99.90
9768;DHT22;4923;52.520;13.494;2023-09-30T15:52:54;18.20;99.90
9768;DHT22;4923;52.520;13.494;2023-09-30T15:55:41;18.20;99.90
9768;DHT22;4923;52.520;13.494;2023-09-30T15:58:29;18.20;99.90
9768;DHT22;4923;52.520;13.494;2023-09-30T16:01:16;18.10;99.90
9768;DHT22;4923;52.520;13.494;2023-09-30T16:04:03;18.10;99.90
9768;DHT22;4923;52.520;13.494;2023-09-30T16:06:50;18.10;99.90
9768;DHT22;4923;52.520;13.494;2023-09-30T16:09:37;18.00;99.90
9768;DHT22;4923;52.520;13.494;2023-09-30T16:12:24;18.00;99.90
9768;DHT22;4923;52.520;13.494;2023-09-30T16:15:12;18.00;99.90
9768;DHT22;4923;52.520;13.494;2023-09-30T16:17:59;17.90;99.90
9768;DHT22;4923;52.520;13.494;2023-09-30T16:20:46;17.80;99.90
9768;DHT22;4923;52.520;13.494;2023-09-30T16:23:33;17.80;99.90
9768;DHT22;4923;52.520;13.494;2023-09-30T16:26:20;17.70;99.90
9768;DHT22;4923;52.520;13.494;2023-09-30T16:29:07;17.50;99.90
9768;DHT22;4923;52.520;13.494;2023-09-30T16:31:55;17.40;99.90
9768;DHT22;4923;52.520;13.494;2023-09-30T16:34:42;17.40;99.90
9768;DHT22;4923;52.520;13.494;2023-09-30T16:37:28;17.30;99.90
9768;DHT22;4923;52.520;13.494;2023-09-30T16:40:15;17.20;99.90
9768;DHT22;4923;52.520;13.494;2023-09-30T16:43:02;17.30;99.90
9768;DHT22;4923;52.520;13.494;2023-09-30T16:45:49;17.20;99.90
9768;DHT22;4923;52.520;13.494;2023-09-30T16:48:38;17.10;99.90
9768;DHT22;4923;52.520;13.494;2023-09-30T16:51:25;17.00;99.90
9768;DHT22;4923;52.520;13.494;2023-09-30T16:54:12;17.00;99.90
9768;DHT22;4923;52.520;13.494;2023-09-30T16:56:59;16.90;99.90
9768;DHT22;4923;52.520;13.494;2023-09-30T16:59:46;16.80;99.90
9768;DHT22;4923;52.520;13.494;2023-09-30T17:02:33;16.80;99.90
9768;DHT22;4923;52.520;13.494;2023-09-30T17:05:21;16.60;99.90
9768;DHT22;4923;52.520;13.494;2023-09-30T17:08:08;16.50;99.90
9768;DHT22;4923;52.520;13.494;2023-09-30T17:10:55;16.40;99.90
9768;DHT22;4923;52.520;13.494;2023-09-30T17:13:42;16.50;99.90
9768;DHT22;4923;52.520;13.494;2023-09-30T17:16:29;16.40;99.90
9768;DHT22;4923;52.520;13.494;2023-09-30T17:19:16;16.30;99.90
9768;DHT22;4923;52.520;13.494;2023-09-30T17:22:04;16.20;99.90
9768;DHT22;4923;52.520;13.494;2023-09-30T17:24:51;16.10;99.90
9768;DHT22;4923;52.520;13.494;2023-09-30T17:27:38;16.00;99.90
9768;DHT22;4923;52.520;13.494;2023-09-30T17:30:27;15.90;99.90
9768;DHT22;4923;52.520;13.494;2023-09-30T17:33:14;15.90;99.90
9768;DHT22;4923;52.520;13.494;2023-09-30T17:36:01;15.80;99.90
9768;DHT22;4923;52.520;13.494;2023-09-30T17:38:50;15.80;99.90
9768;DHT22;4923;52.520;13.494;2023-09-30T17:41:37;15.70;99.90
9768;DHT22;4923;52.520;13.494;2023-09-30T17:44:24;15.60;99.90
9768;DHT22;4923;52.520;13.494;2023-09-30T17:47:10;15.60;99.90
9768;DHT22;4923;52.520;13.494;2023-09-30T17:49:57;15.50;99.90
9768;DHT22;4923;52.520;13.494;2023-09-30T17:52:44;15.50;99.90
9768;DHT22;4923;52.520;13.494;2023-09-30T17:55:35;15.50;99.90
9768;DHT22;4923;52.520;13.494;2023-09-30T17:58:22;15.40;99.90